sensor_id;sensor_type;location;lat;lon;timestamp;P1;durP1;ratioP1;P2;durP2;ratioP2
7108;SDS011;29079;41.930;25.558;2022-07-01T00:00:19;7.10;;;3.63;;
7108;SDS011;29079;41.930;25.558;2022-07-01T00:02:50;9.75;;;4.88;;
7108;SDS011;29079;41.930;25.558;2022-07-01T00:05:20;6.47;;;4.28;;
7108;SDS011;29079;41.930;25.558;2022-07-01T00:07:50;6.20;;;4.20;;
7108;SDS011;29079;41.930;25.558;2022-07-01T00:10:20;7.72;;;4.10;;
7108;SDS011;29079;41.930;25.558;2022-07-01T00:12:52;5.35;;;3.90;;
7108;SDS011;29079;41.930;25.558;2022-07-01T00:15:22;6.05;;;4.13;;
7108;SDS011;29079;41.930;25.558;2022-07-01T00:17:52;7.65;;;4.80;;
7108;SDS011;29079;41.930;25.558;2022-07-01T00:20:22;5.75;;;4.63;;
7108;SDS011;29079;41.930;25.558;2022-07-01T00:22:52;8.65;;;4.43;;
7108;SDS011;29079;41.930;25.558;2022-07-01T00:25:22;7.57;;;4.75;;
7108;SDS011;29079;41.930;25.558;2022-07-01T00:27:54;12.65;;;4.53;;
7108;SDS011;29079;41.930;25.558;2022-07-01T00:30:24;9.68;;;4.22;;
7108;SDS011;29079;41.930;25.558;2022-07-01T00:32:54;8.13;;;4.63;;
7108;SDS011;29079;41.930;25.558;2022-07-01T00:35:24;8.93;;;5.13;;
7108;SDS011;29079;41.930;25.558;2022-07-01T00:37:54;9.38;;;4.30;;
7108;SDS011;29079;41.930;25.558;2022-07-01T00:40:25;9.77;;;4.13;;
7108;SDS011;29079;41.930;25.558;2022-07-01T00:42:57;6.43;;;3.90;;
7108;SDS011;29079;41.930;25.558;2022-07-01T00:45:27;5.25;;;4.15;;
7108;SDS011;29079;41.930;25.558;2022-07-01T00:47:58;4.35;;;3.47;;
7108;SDS011;29079;41.930;25.558;2022-07-01T00:50:29;6.38;;;3.78;;
7108;SDS011;29079;41.930;25.558;2022-07-01T00:52:59;5.03;;;3.53;;
7108;SDS011;29079;41.930;25.558;2022-07-01T00:55:29;5.63;;;3.55;;
7108;SDS011;29079;41.930;25.558;2022-07-01T00:58:01;8.80;;;4.43;;
7108;SDS011;29079;41.930;25.558;2022-07-01T01:00:32;11.18;;;3.70;;
7108;SDS011;29079;41.930;25.558;2022-07-01T01:03:02;6.40;;;4.10;;
7108;SDS011;29079;41.930;25.558;2022-07-01T01:05:32;7.43;;;3.65;;
7108;SDS011;29079;41.930;25.558;2022-07-01T01:08:03;9.85;;;3.97;;
7108;SDS011;29079;41.930;25.558;2022-07-01T01:10:33;7.40;;;3.83;;
7108;SDS011;29079;41.930;25.558;2022-07-01T01:13:06;4.50;;;3.30;;
7108;SDS011;29079;41.930;25.558;2022-07-01T01:15:39;8.95;;;4.18;;
7108;SDS011;29079;41.930;25.558;2022-07-01T01:18:09;5.60;;;3.63;;
7108;SDS011;29079;41.930;25.558;2022-07-01T01:20:41;7.22;;;3.65;;
7108;SDS011;29079;41.930;25.558;2022-07-01T01:23:10;5.28;;;3.80;;
7108;SDS011;29079;41.930;25.558;2022-07-01T01:25:41;8.77;;;3.67;;
7108;SDS011;29079;41.930;25.558;2022-07-01T01:28:11;4.35;;;3.42;;
7108;SDS011;29079;41.930;25.558;2022-07-01T01:30:41;3.50;;;3.20;;
7108;SDS011;29079;41.930;25.558;2022-07-01T01:33:12;7.68;;;3.45;;
7108;SDS011;29079;41.930;25.558;2022-07-01T01:35:43;4.55;;;3.13;;
7108;SDS011;29079;41.930;25.558;2022-07-01T01:38:13;8.32;;;4.20;;
7108;SDS011;29079;41.930;25.558;2022-07-01T01:40:43;6.22;;;3.40;;
7108;SDS011;29079;41.930;25.558;2022-07-01T01:43:13;6.88;;;3.30;;
7108;SDS011;29079;41.930;25.558;2022-07-01T01:45:44;6.82;;;3.30;;
7108;SDS011;29079;41.930;25.558;2022-07-01T01:48:14;7.72;;;3.67;;
7108;SDS011;29079;41.930;25.558;2022-07-01T01:50:46;6.28;;;3.55;;
7108;SDS011;29079;41.930;25.558;2022-07-01T01:53:16;4.60;;;3.60;;
7108;SDS011;29079;41.930;25.558;2022-07-01T01:55:46;5.68;;;3.80;;
7108;SDS011;29079;41.930;25.558;2022-07-01T01:58:17;4.80;;;3.85;;
7108;SDS011;29079;41.930;25.558;2022-07-01T02:00:47;8.40;;;3.67;;
7108;SDS011;29079;41.930;25.558;2022-07-01T02:03:18;4.45;;;3.40;;
7108;SDS011;29079;41.930;25.558;2022-07-01T02:05:50;5.43;;;3.60;;
7108;SDS011;29079;41.930;25.558;2022-07-01T02:08:20;7.15;;;3.80;;
7108;SDS011;29079;41.930;25.558;2022-07-01T02:10:50;9.52;;;4.70;;
7108;SDS011;29079;41.930;25.558;2022-07-01T02:13:23;5.07;;;4.00;;
7108;SDS011;29079;41.930;25.558;2022-07-01T02:15:54;8.88;;;6.65;;
7108;SDS011;29079;41.930;25.558;2022-07-01T02:18:24;24.70;;;16.70;;
7108;SDS011;29079;41.930;25.558;2022-07-01T02:20:57;10.18;;;5.45;;
7108;SDS011;29079;41.930;25.558;2022-07-01T02:23:27;5.40;;;3.83;;
7108;SDS011;29079;41.930;25.558;2022-07-01T02:25:57;11.88;;;9.05;;
7108;SDS011;29079;41.930;25.558;2022-07-01T02:28:27;11.60;;;6.80;;
7108;SDS011;29079;41.930;25.558;2022-07-01T02:30:58;5.95;;;3.70;;
7108;SDS011;29079;41.930;25.558;2022-07-01T02:33:31;4.88;;;3.80;;
7108;SDS011;29079;41.930;25.558;2022-07-01T02:36:02;8.13;;;4.55;;
7108;SDS011;29079;41.930;25.558;2022-07-01T02:38:33;7.47;;;4.32;;
7108;SDS011;29079;41.930;25.558;2022-07-01T02:41:03;6.85;;;3.72;;
7108;SDS011;29079;41.930;25.558;2022-07-01T02:43:33;11.93;;;4.60;;
7108;SDS011;29079;41.930;25.558;2022-07-01T02:46:03;6.80;;;4.55;;
7108;SDS011;29079;41.930;25.558;2022-07-01T02:48:33;7.05;;;3.92;;
7108;SDS011;29079;41.930;25.558;2022-07-01T02:51:05;5.38;;;4.10;;
7108;SDS011;29079;41.930;25.558;2022-07-01T02:53:35;5.15;;;3.38;;
7108;SDS011;29079;41.930;25.558;2022-07-01T02:56:05;5.05;;;3.97;;
7108;SDS011;29079;41.930;25.558;2022-07-01T02:58:35;9.20;;;3.90;;
7108;SDS011;29079;41.930;25.558;2022-07-01T03:01:05;8.35;;;4.13;;
7108;SDS011;29079;41.930;25.558;2022-07-01T03:03:36;11.70;;;4.20;;
7108;SDS011;29079;41.930;25.558;2022-07-01T03:06:07;7.35;;;3.67;;
7108;SDS011;29079;41.930;25.558;2022-07-01T03:08:37;6.57;;;3.58;;
7108;SDS011;29079;41.930;25.558;2022-07-01T03:11:08;9.48;;;4.50;;
7108;SDS011;29079;41.930;25.558;2022-07-01T03:13:43;4.60;;;3.88;;
7108;SDS011;29079;41.930;25.558;2022-07-01T03:16:14;8.23;;;4.10;;
7108;SDS011;29079;41.930;25.558;2022-07-01T03:18:45;6.13;;;3.75;;
7108;SDS011;29079;41.930;25.558;2022-07-01T03:21:17;8.93;;;4.20;;
7108;SDS011;29079;41.930;25.558;2022-07-01T03:23:47;6.95;;;4.32;;
7108;SDS011;29079;41.930;25.558;2022-07-01T03:26:17;8.45;;;4.45;;
7108;SDS011;29079;41.930;25.558;2022-07-01T03:28:48;9.80;;;5.40;;
7108;SDS011;29079;41.930;25.558;2022-07-01T03:31:18;8.52;;;5.38;;
7108;SDS011;29079;41.930;25.558;2022-07-01T03:33:48;10.13;;;4.78;;
7108;SDS011;29079;41.930;25.558;2022-07-01T03:36:20;8.50;;;5.00;;
7108;SDS011;29079;41.930;25.558;2022-07-01T03:38:50;5.95;;;4.53;;
7108;SDS011;29079;41.930;25.558;2022-07-01T03:41:20;9.40;;;5.03;;
7108;SDS011;29079;41.930;25.558;2022-07-01T03:43:50;10.93;;;5.00;;
7108;SDS011;29079;41.930;25.558;2022-07-01T03:46:20;9.45;;;5.30;;
7108;SDS011;29079;41.930;25.558;2022-07-01T03:48:50;9.73;;;5.05;;
7108;SDS011;29079;41.930;25.558;2022-07-01T03:51:21;12.30;;;5.38;;
7108;SDS011;29079;41.930;25.558;2022-07-01T03:53:51;8.73;;;6.03;;
7108;SDS011;29079;41.930;25.558;2022-07-01T03:56:39;10.25;;;5.50;;
7108;SDS011;29079;41.930;25.558;2022-07-01T03:59:09;10.05;;;6.03;;
7108;SDS011;29079;41.930;25.558;2022-07-01T04:01:39;6.65;;;5.25;;
7108;SDS011;29079;41.930;25.558;2022-07-01T04:04:09;9.95;;;5.40;;
7108;SDS011;29079;41.930;25.558;2022-07-01T04:06:41;6.72;;;4.60;;
7108;SDS011;29079;41.930;25.558;2022-07-01T04:09:12;8.52;;;5.63;;
7108;SDS011;29079;41.930;25.558;2022-07-01T04:11:45;8.10;;;5.25;;
7108;SDS011;29079;41.930;25.558;2022-07-01T04:14:18;9.75;;;5.60;;
7108;SDS011;29079;41.930;25.558;2022-07-01T04:16:48;6.80;;;4.43;;
7108;SDS011;29079;41.930;25.558;2022-07-01T04:19:19;6.95;;;4.57;;
7108;SDS011;29079;41.930;25.558;2022-07-01T04:21:51;9.32;;;5.45;;
7108;SDS011;29079;41.930;25.558;2022-07-01T04:24:39;9.02;;;5.35;;
7108;SDS011;29079;41.930;25.558;2022-07-01T04:27:10;9.07;;;4.22;;
7108;SDS011;29079;41.930;25.558;2022-07-01T04:29:40;7.63;;;5.05;;
7108;SDS011;29079;41.930;25.558;2022-07-01T04:32:10;12.02;;;5.65;;
7108;SDS011;29079;41.930;25.558;2022-07-01T04:34:40;11.93;;;5.07;;
7108;SDS011;29079;41.930;25.558;2022-07-01T04:37:12;7.45;;;4.70;;
7108;SDS011;29079;41.930;25.558;2022-07-01T04:39:42;9.27;;;4.50;;
7108;SDS011;29079;41.930;25.558;2022-07-01T04:42:12;8.75;;;5.20;;
7108;SDS011;29079;41.930;25.558;2022-07-01T04:44:43;19.33;;;6.05;;
7108;SDS011;29079;41.930;25.558;2022-07-01T04:47:14;9.77;;;5.40;;
7108;SDS011;29079;41.930;25.558;2022-07-01T04:49:44;51.65;;;9.90;;
7108;SDS011;29079;41.930;25.558;2022-07-01T04:52:15;85.60;;;11.82;;
7108;SDS011;29079;41.930;25.558;2022-07-01T04:54:45;15.05;;;5.22;;
7108;SDS011;29079;41.930;25.558;2022-07-01T04:57:15;8.18;;;4.60;;
7108;SDS011;29079;41.930;25.558;2022-07-01T04:59:45;7.45;;;5.15;;
7108;SDS011;29079;41.930;25.558;2022-07-01T05:02:15;11.60;;;5.63;;
7108;SDS011;29079;41.930;25.558;2022-07-01T05:04:46;13.90;;;6.43;;
7108;SDS011;29079;41.930;25.558;2022-07-01T05:07:17;12.25;;;5.05;;
7108;SDS011;29079;41.930;25.558;2022-07-01T05:09:59;12.97;;;6.43;;
7108;SDS011;29079;41.930;25.558;2022-07-01T05:12:30;18.52;;;5.28;;
7108;SDS011;29079;41.930;25.558;2022-07-01T05:15:00;11.15;;;5.63;;
7108;SDS011;29079;41.930;25.558;2022-07-01T05:17:32;8.90;;;5.47;;
7108;SDS011;29079;41.930;25.558;2022-07-01T05:23:04;11.07;;;5.40;;
7108;SDS011;29079;41.930;25.558;2022-07-01T05:25:34;8.73;;;4.93;;
7108;SDS011;29079;41.930;25.558;2022-07-01T05:28:04;8.25;;;5.05;;
7108;SDS011;29079;41.930;25.558;2022-07-01T05:30:34;9.18;;;5.40;;
7108;SDS011;29079;41.930;25.558;2022-07-01T05:33:04;15.25;;;6.88;;
7108;SDS011;29079;41.930;25.558;2022-07-01T05:35:35;15.32;;;7.88;;
7108;SDS011;29079;41.930;25.558;2022-07-01T05:38:06;12.93;;;6.03;;
7108;SDS011;29079;41.930;25.558;2022-07-01T05:40:36;29.23;;;8.15;;
7108;SDS011;29079;41.930;25.558;2022-07-01T05:43:06;7.93;;;5.60;;
7108;SDS011;29079;41.930;25.558;2022-07-01T05:45:36;6.63;;;5.57;;
7108;SDS011;29079;41.930;25.558;2022-07-01T05:48:07;11.77;;;5.47;;
7108;SDS011;29079;41.930;25.558;2022-07-01T05:50:39;9.75;;;5.30;;
7108;SDS011;29079;41.930;25.558;2022-07-01T05:53:13;15.45;;;6.80;;
7108;SDS011;29079;41.930;25.558;2022-07-01T05:55:45;26.13;;;6.43;;
7108;SDS011;29079;41.930;25.558;2022-07-01T05:58:20;10.88;;;5.40;;
7108;SDS011;29079;41.930;25.558;2022-07-01T06:00:52;13.23;;;7.03;;
7108;SDS011;29079;41.930;25.558;2022-07-01T06:03:36;10.60;;;6.38;;
7108;SDS011;29079;41.930;25.558;2022-07-01T06:06:08;22.42;;;7.57;;
7108;SDS011;29079;41.930;25.558;2022-07-01T06:08:41;11.48;;;5.82;;
7108;SDS011;29079;41.930;25.558;2022-07-01T06:11:13;11.63;;;6.18;;
7108;SDS011;29079;41.930;25.558;2022-07-01T06:13:46;10.32;;;6.22;;
7108;SDS011;29079;41.930;25.558;2022-07-01T06:16:19;9.35;;;6.65;;
7108;SDS011;29079;41.930;25.558;2022-07-01T06:18:58;7.47;;;5.45;;
7108;SDS011;29079;41.930;25.558;2022-07-01T06:21:31;10.85;;;5.47;;
7108;SDS011;29079;41.930;25.558;2022-07-01T06:24:06;10.52;;;5.82;;
7108;SDS011;29079;41.930;25.558;2022-07-01T06:26:40;10.20;;;7.85;;
7108;SDS011;29079;41.930;25.558;2022-07-01T06:29:12;16.38;;;7.03;;
7108;SDS011;29079;41.930;25.558;2022-07-01T06:31:44;11.10;;;5.90;;
7108;SDS011;29079;41.930;25.558;2022-07-01T06:34:18;9.75;;;5.72;;
7108;SDS011;29079;41.930;25.558;2022-07-01T06:36:50;13.25;;;6.43;;
7108;SDS011;29079;41.930;25.558;2022-07-01T06:39:23;10.15;;;5.40;;
7108;SDS011;29079;41.930;25.558;2022-07-01T06:41:55;7.10;;;5.43;;
7108;SDS011;29079;41.930;25.558;2022-07-01T06:44:28;11.00;;;5.38;;
7108;SDS011;29079;41.930;25.558;2022-07-01T06:47:00;7.63;;;5.70;;
7108;SDS011;29079;41.930;25.558;2022-07-01T06:49:32;6.70;;;5.15;;
7108;SDS011;29079;41.930;25.558;2022-07-01T06:52:03;12.40;;;5.82;;
7108;SDS011;29079;41.930;25.558;2022-07-01T06:54:37;9.45;;;5.70;;
7108;SDS011;29079;41.930;25.558;2022-07-01T06:57:09;11.85;;;5.10;;
7108;SDS011;29079;41.930;25.558;2022-07-01T06:59:40;15.80;;;6.75;;
7108;SDS011;29079;41.930;25.558;2022-07-01T07:02:12;7.35;;;5.55;;
7108;SDS011;29079;41.930;25.558;2022-07-01T07:04:43;9.07;;;6.35;;
7108;SDS011;29079;41.930;25.558;2022-07-01T07:07:29;10.32;;;5.20;;
7108;SDS011;29079;41.930;25.558;2022-07-01T07:10:03;7.22;;;6.43;;
7108;SDS011;29079;41.930;25.558;2022-07-01T07:12:35;6.40;;;5.57;;
7108;SDS011;29079;41.930;25.558;2022-07-01T07:15:07;16.23;;;8.65;;
7108;SDS011;29079;41.930;25.558;2022-07-01T07:17:38;11.55;;;6.20;;
7108;SDS011;29079;41.930;25.558;2022-07-01T07:20:08;9.25;;;6.18;;
7108;SDS011;29079;41.930;25.558;2022-07-01T07:22:38;9.98;;;6.30;;
7108;SDS011;29079;41.930;25.558;2022-07-01T07:25:10;10.18;;;6.20;;
7108;SDS011;29079;41.930;25.558;2022-07-01T07:27:40;10.43;;;5.78;;
7108;SDS011;29079;41.930;25.558;2022-07-01T07:30:11;13.32;;;7.22;;
7108;SDS011;29079;41.930;25.558;2022-07-01T07:32:42;17.95;;;7.60;;
7108;SDS011;29079;41.930;25.558;2022-07-01T07:35:12;10.10;;;6.50;;
7108;SDS011;29079;41.930;25.558;2022-07-01T07:37:44;13.30;;;8.65;;
7108;SDS011;29079;41.930;25.558;2022-07-01T07:40:16;11.07;;;6.93;;
7108;SDS011;29079;41.930;25.558;2022-07-01T07:42:47;11.60;;;7.20;;
7108;SDS011;29079;41.930;25.558;2022-07-01T07:45:18;8.80;;;6.30;;
7108;SDS011;29079;41.930;25.558;2022-07-01T07:47:48;16.83;;;7.40;;
7108;SDS011;29079;41.930;25.558;2022-07-01T07:50:18;14.57;;;7.05;;
7108;SDS011;29079;41.930;25.558;2022-07-01T07:52:48;11.32;;;6.60;;
7108;SDS011;29079;41.930;25.558;2022-07-01T07:55:20;9.25;;;6.47;;
7108;SDS011;29079;41.930;25.558;2022-07-01T07:57:50;7.32;;;6.22;;
7108;SDS011;29079;41.930;25.558;2022-07-01T08:00:20;16.10;;;6.30;;
7108;SDS011;29079;41.930;25.558;2022-07-01T08:02:51;7.25;;;6.30;;
7108;SDS011;29079;41.930;25.558;2022-07-01T08:05:21;8.73;;;5.50;;
7108;SDS011;29079;41.930;25.558;2022-07-01T08:07:51;10.35;;;5.82;;
7108;SDS011;29079;41.930;25.558;2022-07-01T08:10:23;19.23;;;6.70;;
7108;SDS011;29079;41.930;25.558;2022-07-01T08:12:53;10.95;;;5.53;;
7108;SDS011;29079;41.930;25.558;2022-07-01T08:15:26;12.32;;;5.72;;
7108;SDS011;29079;41.930;25.558;2022-07-01T08:17:56;17.80;;;6.40;;
7108;SDS011;29079;41.930;25.558;2022-07-01T08:20:25;13.25;;;6.13;;
7108;SDS011;29079;41.930;25.558;2022-07-01T08:22:56;8.90;;;5.70;;
7108;SDS011;29079;41.930;25.558;2022-07-01T08:25:28;6.90;;;5.30;;
7108;SDS011;29079;41.930;25.558;2022-07-01T08:28:03;11.25;;;7.90;;
7108;SDS011;29079;41.930;25.558;2022-07-01T08:30:33;13.75;;;7.85;;
7108;SDS011;29079;41.930;25.558;2022-07-01T08:33:03;8.35;;;6.40;;
7108;SDS011;29079;41.930;25.558;2022-07-01T08:35:33;9.13;;;7.03;;
7108;SDS011;29079;41.930;25.558;2022-07-01T08:38:04;8.57;;;5.93;;
7108;SDS011;29079;41.930;25.558;2022-07-01T08:40:36;10.70;;;6.10;;
7108;SDS011;29079;41.930;25.558;2022-07-01T08:43:06;10.02;;;6.70;;
7108;SDS011;29079;41.930;25.558;2022-07-01T08:45:37;11.13;;;6.03;;
7108;SDS011;29079;41.930;25.558;2022-07-01T08:48:07;9.40;;;6.07;;
7108;SDS011;29079;41.930;25.558;2022-07-01T08:50:38;10.38;;;5.97;;
7108;SDS011;29079;41.930;25.558;2022-07-01T08:53:11;9.68;;;7.03;;
7108;SDS011;29079;41.930;25.558;2022-07-01T08:55:44;9.87;;;6.97;;
7108;SDS011;29079;41.930;25.558;2022-07-01T08:58:31;10.07;;;6.40;;
7108;SDS011;29079;41.930;25.558;2022-07-01T09:03:53;7.75;;;6.22;;
7108;SDS011;29079;41.930;25.558;2022-07-01T09:06:26;8.70;;;6.20;;
7108;SDS011;29079;41.930;25.558;2022-07-01T09:09:09;13.18;;;6.05;;
7108;SDS011;29079;41.930;25.558;2022-07-01T09:11:46;25.77;;;7.57;;
7108;SDS011;29079;41.930;25.558;2022-07-01T09:14:22;10.57;;;6.07;;
7108;SDS011;29079;41.930;25.558;2022-07-01T09:16:54;11.10;;;5.80;;
7108;SDS011;29079;41.930;25.558;2022-07-01T09:19:28;10.87;;;6.13;;
7108;SDS011;29079;41.930;25.558;2022-07-01T09:21:59;6.28;;;4.90;;
7108;SDS011;29079;41.930;25.558;2022-07-01T09:24:31;9.20;;;6.38;;
7108;SDS011;29079;41.930;25.558;2022-07-01T09:27:06;7.97;;;5.70;;
7108;SDS011;29079;41.930;25.558;2022-07-01T09:29:40;7.63;;;6.22;;
7108;SDS011;29079;41.930;25.558;2022-07-01T09:32:11;7.50;;;5.15;;
7108;SDS011;29079;41.930;25.558;2022-07-01T09:34:43;8.88;;;5.97;;
7108;SDS011;29079;41.930;25.558;2022-07-01T09:37:16;9.80;;;5.80;;
7108;SDS011;29079;41.930;25.558;2022-07-01T09:39:52;5.47;;;4.72;;
7108;SDS011;29079;41.930;25.558;2022-07-01T09:42:26;9.95;;;5.70;;
7108;SDS011;29079;41.930;25.558;2022-07-01T09:45:01;16.75;;;6.28;;
7108;SDS011;29079;41.930;25.558;2022-07-01T09:47:39;10.55;;;5.85;;
7108;SDS011;29079;41.930;25.558;2022-07-01T09:50:12;9.20;;;5.13;;
7108;SDS011;29079;41.930;25.558;2022-07-01T09:52:44;7.18;;;5.65;;
7108;SDS011;29079;41.930;25.558;2022-07-01T09:55:17;8.07;;;5.45;;
7108;SDS011;29079;41.930;25.558;2022-07-01T09:57:50;6.57;;;5.68;;
7108;SDS011;29079;41.930;25.558;2022-07-01T10:00:22;6.30;;;5.40;;
7108;SDS011;29079;41.930;25.558;2022-07-01T10:02:54;17.42;;;5.78;;
7108;SDS011;29079;41.930;25.558;2022-07-01T10:05:29;6.50;;;5.80;;
7108;SDS011;29079;41.930;25.558;2022-07-01T10:08:13;15.40;;;5.40;;
7108;SDS011;29079;41.930;25.558;2022-07-01T10:11:01;6.07;;;5.47;;
7108;SDS011;29079;41.930;25.558;2022-07-01T10:13:54;7.40;;;5.70;;
7108;SDS011;29079;41.930;25.558;2022-07-01T10:16:28;6.03;;;5.30;;
7108;SDS011;29079;41.930;25.558;2022-07-01T10:18:59;10.02;;;5.82;;
7108;SDS011;29079;41.930;25.558;2022-07-01T10:21:56;14.05;;;5.97;;
7108;SDS011;29079;41.930;25.558;2022-07-01T10:24:30;5.95;;;5.25;;
7108;SDS011;29079;41.930;25.558;2022-07-01T10:27:02;9.73;;;6.15;;
7108;SDS011;29079;41.930;25.558;2022-07-01T10:32:48;13.43;;;5.43;;
7108;SDS011;29079;41.930;25.558;2022-07-01T10:35:37;7.97;;;5.03;;
7108;SDS011;29079;41.930;25.558;2022-07-01T10:38:11;6.20;;;5.25;;
7108;SDS011;29079;41.930;25.558;2022-07-01T10:40:49;6.30;;;5.10;;
7108;SDS011;29079;41.930;25.558;2022-07-01T10:43:32;5.65;;;5.05;;
7108;SDS011;29079;41.930;25.558;2022-07-01T10:46:04;13.48;;;5.78;;
7108;SDS011;29079;41.930;25.558;2022-07-01T10:48:34;5.68;;;5.18;;
7108;SDS011;29079;41.930;25.558;2022-07-01T10:51:04;8.52;;;5.53;;
7108;SDS011;29079;41.930;25.558;2022-07-01T10:56:37;8.23;;;6.78;;
7108;SDS011;29079;41.930;25.558;2022-07-01T10:59:16;12.85;;;6.32;;
7108;SDS011;29079;41.930;25.558;2022-07-01T11:01:49;15.63;;;10.93;;
7108;SDS011;29079;41.930;25.558;2022-07-01T11:04:19;14.13;;;10.77;;
7108;SDS011;29079;41.930;25.558;2022-07-01T11:06:49;26.88;;;8.25;;
7108;SDS011;29079;41.930;25.558;2022-07-01T11:09:19;20.08;;;9.05;;
7108;SDS011;29079;41.930;25.558;2022-07-01T11:11:51;12.93;;;7.13;;
7108;SDS011;29079;41.930;25.558;2022-07-01T11:14:21;10.65;;;6.53;;
7108;SDS011;29079;41.930;25.558;2022-07-01T11:16:54;12.00;;;6.30;;
7108;SDS011;29079;41.930;25.558;2022-07-01T11:19:25;6.93;;;5.93;;
7108;SDS011;29079;41.930;25.558;2022-07-01T11:21:56;7.30;;;5.20;;
7108;SDS011;29079;41.930;25.558;2022-07-01T11:24:26;10.13;;;5.82;;
7108;SDS011;29079;41.930;25.558;2022-07-01T11:26:59;10.73;;;6.40;;
7108;SDS011;29079;41.930;25.558;2022-07-01T11:29:30;14.32;;;6.00;;
7108;SDS011;29079;41.930;25.558;2022-07-01T11:32:02;8.90;;;5.05;;
7108;SDS011;29079;41.930;25.558;2022-07-01T11:34:32;6.82;;;5.32;;
7108;SDS011;29079;41.930;25.558;2022-07-01T11:37:08;9.27;;;5.53;;
7108;SDS011;29079;41.930;25.558;2022-07-01T11:40:06;9.93;;;6.32;;
7108;SDS011;29079;41.930;25.558;2022-07-01T11:42:37;10.20;;;5.32;;
7108;SDS011;29079;41.930;25.558;2022-07-01T11:45:21;7.88;;;5.50;;
7108;SDS011;29079;41.930;25.558;2022-07-01T11:47:55;7.35;;;5.60;;
7108;SDS011;29079;41.930;25.558;2022-07-01T11:50:25;9.40;;;5.82;;
7108;SDS011;29079;41.930;25.558;2022-07-01T11:52:56;9.88;;;5.50;;
7108;SDS011;29079;41.930;25.558;2022-07-01T11:55:26;12.00;;;6.40;;
7108;SDS011;29079;41.930;25.558;2022-07-01T11:58:05;8.30;;;5.85;;
7108;SDS011;29079;41.930;25.558;2022-07-01T12:00:36;7.90;;;5.68;;
7108;SDS011;29079;41.930;25.558;2022-07-01T12:03:08;8.27;;;5.68;;
7108;SDS011;29079;41.930;25.558;2022-07-01T12:05:39;9.68;;;6.22;;
7108;SDS011;29079;41.930;25.558;2022-07-01T12:08:09;10.88;;;5.90;;
7108;SDS011;29079;41.930;25.558;2022-07-01T12:10:40;6.93;;;5.90;;
7108;SDS011;29079;41.930;25.558;2022-07-01T12:13:20;9.35;;;6.22;;
7108;SDS011;29079;41.930;25.558;2022-07-01T12:15:50;17.05;;;6.60;;
7108;SDS011;29079;41.930;25.558;2022-07-01T12:18:22;9.45;;;5.80;;
7108;SDS011;29079;41.930;25.558;2022-07-01T12:20:52;10.93;;;5.70;;
7108;SDS011;29079;41.930;25.558;2022-07-01T12:23:23;7.65;;;5.93;;
7108;SDS011;29079;41.930;25.558;2022-07-01T12:25:53;6.93;;;6.15;;
7108;SDS011;29079;41.930;25.558;2022-07-01T12:28:28;9.77;;;5.82;;
7108;SDS011;29079;41.930;25.558;2022-07-01T12:31:04;10.52;;;6.78;;
7108;SDS011;29079;41.930;25.558;2022-07-01T12:33:38;8.82;;;6.40;;
7108;SDS011;29079;41.930;25.558;2022-07-01T12:38:43;6.97;;;5.75;;
7108;SDS011;29079;41.930;25.558;2022-07-01T12:41:26;11.10;;;6.55;;
7108;SDS011;29079;41.930;25.558;2022-07-01T12:44:05;7.45;;;6.00;;
7108;SDS011;29079;41.930;25.558;2022-07-01T12:46:50;18.40;;;6.72;;
7108;SDS011;29079;41.930;25.558;2022-07-01T12:49:23;10.38;;;6.75;;
7108;SDS011;29079;41.930;25.558;2022-07-01T12:51:54;10.48;;;5.85;;
7108;SDS011;29079;41.930;25.558;2022-07-01T12:54:29;8.00;;;5.90;;
7108;SDS011;29079;41.930;25.558;2022-07-01T12:57:01;11.82;;;6.03;;
7108;SDS011;29079;41.930;25.558;2022-07-01T12:59:31;22.35;;;6.57;;
7108;SDS011;29079;41.930;25.558;2022-07-01T13:02:03;12.40;;;6.82;;
7108;SDS011;29079;41.930;25.558;2022-07-01T13:04:35;24.65;;;8.02;;
7108;SDS011;29079;41.930;25.558;2022-07-01T13:07:08;29.70;;;8.95;;
7108;SDS011;29079;41.930;25.558;2022-07-01T13:09:39;24.20;;;9.43;;
7108;SDS011;29079;41.930;25.558;2022-07-01T13:12:11;21.92;;;10.57;;
7108;SDS011;29079;41.930;25.558;2022-07-01T13:14:42;25.98;;;10.13;;
7108;SDS011;29079;41.930;25.558;2022-07-01T13:17:13;26.48;;;9.60;;
7108;SDS011;29079;41.930;25.558;2022-07-01T13:19:45;16.40;;;10.38;;
7108;SDS011;29079;41.930;25.558;2022-07-01T13:22:17;15.30;;;9.88;;
7108;SDS011;29079;41.930;25.558;2022-07-01T13:24:47;24.10;;;10.15;;
7108;SDS011;29079;41.930;25.558;2022-07-01T13:27:18;20.38;;;9.60;;
7108;SDS011;29079;41.930;25.558;2022-07-01T13:29:49;17.65;;;9.93;;
7108;SDS011;29079;41.930;25.558;2022-07-01T13:32:20;13.27;;;9.77;;
7108;SDS011;29079;41.930;25.558;2022-07-01T13:34:51;17.33;;;9.00;;
7108;SDS011;29079;41.930;25.558;2022-07-01T13:37:21;12.20;;;8.43;;
7108;SDS011;29079;41.930;25.558;2022-07-01T13:39:52;9.55;;;8.20;;
7108;SDS011;29079;41.930;25.558;2022-07-01T13:42:22;13.30;;;9.93;;
7108;SDS011;29079;41.930;25.558;2022-07-01T13:44:52;13.35;;;11.32;;
7108;SDS011;29079;41.930;25.558;2022-07-01T13:47:22;9.57;;;8.60;;
7108;SDS011;29079;41.930;25.558;2022-07-01T13:49:54;21.63;;;18.83;;
7108;SDS011;29079;41.930;25.558;2022-07-01T13:52:25;27.65;;;19.05;;
7108;SDS011;29079;41.930;25.558;2022-07-01T13:54:57;19.17;;;14.30;;
7108;SDS011;29079;41.930;25.558;2022-07-01T13:57:28;22.70;;;20.30;;
7108;SDS011;29079;41.930;25.558;2022-07-01T13:59:58;52.45;;;42.97;;
7108;SDS011;29079;41.930;25.558;2022-07-01T14:02:28;21.50;;;16.10;;
7108;SDS011;29079;41.930;25.558;2022-07-01T14:04:59;29.17;;;24.90;;
7108;SDS011;29079;41.930;25.558;2022-07-01T14:07:30;20.73;;;16.05;;
7108;SDS011;29079;41.930;25.558;2022-07-01T14:10:00;24.83;;;18.15;;
7108;SDS011;29079;41.930;25.558;2022-07-01T14:12:31;14.43;;;11.27;;
7108;SDS011;29079;41.930;25.558;2022-07-01T14:15:02;10.30;;;8.98;;
7108;SDS011;29079;41.930;25.558;2022-07-01T14:17:33;15.63;;;11.75;;
7108;SDS011;29079;41.930;25.558;2022-07-01T14:20:05;12.85;;;11.35;;
7108;SDS011;29079;41.930;25.558;2022-07-01T14:22:35;16.73;;;11.60;;
7108;SDS011;29079;41.930;25.558;2022-07-01T14:25:06;24.02;;;20.80;;
7108;SDS011;29079;41.930;25.558;2022-07-01T14:27:36;22.10;;;16.85;;
7108;SDS011;29079;41.930;25.558;2022-07-01T14:30:07;44.53;;;39.83;;
7108;SDS011;29079;41.930;25.558;2022-07-01T14:32:38;27.27;;;24.27;;
7108;SDS011;29079;41.930;25.558;2022-07-01T14:35:09;22.88;;;19.95;;
7108;SDS011;29079;41.930;25.558;2022-07-01T14:37:40;96.13;;;27.70;;
7108;SDS011;29079;41.930;25.558;2022-07-01T14:40:12;367.80;;;51.47;;
7108;SDS011;29079;41.930;25.558;2022-07-01T14:42:41;548.53;;;74.78;;
7108;SDS011;29079;41.930;25.558;2022-07-01T14:45:12;231.35;;;41.47;;
7108;SDS011;29079;41.930;25.558;2022-07-01T14:47:42;232.57;;;48.35;;
7108;SDS011;29079;41.930;25.558;2022-07-01T14:50:20;67.50;;;39.35;;
7108;SDS011;29079;41.930;25.558;2022-07-01T14:52:50;59.38;;;41.63;;
7108;SDS011;29079;41.930;25.558;2022-07-01T14:55:20;55.25;;;41.00;;
7108;SDS011;29079;41.930;25.558;2022-07-01T14:57:50;22.15;;;15.88;;
7108;SDS011;29079;41.930;25.558;2022-07-01T15:00:21;15.45;;;11.73;;
7108;SDS011;29079;41.930;25.558;2022-07-01T15:02:51;17.02;;;9.95;;
7108;SDS011;29079;41.930;25.558;2022-07-01T15:05:25;14.30;;;8.95;;
7108;SDS011;29079;41.930;25.558;2022-07-01T15:07:55;11.95;;;9.68;;
7108;SDS011;29079;41.930;25.558;2022-07-01T15:10:25;12.85;;;9.63;;
7108;SDS011;29079;41.930;25.558;2022-07-01T15:12:56;14.20;;;8.13;;
7108;SDS011;29079;41.930;25.558;2022-07-01T15:15:26;9.18;;;8.10;;
7108;SDS011;29079;41.930;25.558;2022-07-01T15:17:56;10.65;;;7.60;;
7108;SDS011;29079;41.930;25.558;2022-07-01T15:20:28;11.48;;;7.55;;
7108;SDS011;29079;41.930;25.558;2022-07-01T15:22:58;11.18;;;9.80;;